Time;durP1;ratioP1;P1;durP2;ratioP2;P2;SDS_P1;SDS_P2;PMS_P1;PMS_P2;Temp;Humidity;BMP_temperature;BMP_pressure;BME280_temperature;BME280_humidity;BME280_pressure;Samples;Min_cycle;Max_cycle;Signal;HPM_P1;HPM_P2
2023/08/14 00:00:23;;;;;;;8.95;2.30;;;19.30;99.90;;;;;;5020593;28;20068;-67
2023/08/14 00:02:49;;;;;;;7.50;2.10;;;19.20;99.90;;;;;;5020501;28;20091;-67
2023/08/14 00:05:14;;;;;;;8.48;2.33;;;19.20;99.90;;;;;;5019779;28;20026;-67
2023/08/14 00:07:40;;;;;;;5.13;2.72;;;19.20;99.90;;;;;;5019394;28;20052;-67
2023/08/14 00:10:06;;;;;;;6.72;2.22;;;19.10;99.90;;;;;;5019354;28;20022;-67
2023/08/14 00:12:32;;;;;;;7.93;2.13;;;19.10;99.90;;;;;;5019937;28;20064;-67
2023/08/14 00:14:57;;;;;;;8.70;2.28;;;19.00;99.90;;;;;;5020212;28;20057;-67
2023/08/14 00:17:23;;;;;;;3.80;1.85;;;19.00;99.90;;;;;;5019427;28;20084;-67
2023/08/14 00:19:49;;;;;;;3.85;1.90;;;18.90;99.90;;;;;;5019448;28;20029;-67
2023/08/14 00:22:14;;;;;;;3.08;2.15;;;18.90;99.90;;;;;;5019363;28;20026;-67
2023/08/14 00:24:40;;;;;;;4.75;1.85;;;18.90;99.90;;;;;;5019157;28;20022;-67
2023/08/14 00:27:06;;;;;;;3.92;2.08;;;19.00;99.90;;;;;;5020023;28;20026;-67
2023/08/14 00:29:31;;;;;;;5.78;2.15;;;19.00;99.90;;;;;;5019541;28;20026;-67
2023/08/14 00:31:57;;;;;;;4.60;1.85;;;19.00;99.90;;;;;;5019266;28;20030;-67
2023/08/14 00:34:22;;;;;;;3.65;2.05;;;19.00;99.90;;;;;;5019028;28;20026;-67
2023/08/14 00:36:48;;;;;;;4.03;2.22;;;19.00;99.90;;;;;;5019086;28;20044;-67
2023/08/14 00:39:13;;;;;;;8.32;2.30;;;18.90;99.90;;;;;;5019083;28;20030;-67
2023/08/14 00:41:39;;;;;;;8.75;2.38;;;18.90;99.90;;;;;;5018800;28;20029;-67
2023/08/14 00:44:05;;;;;;;3.72;1.92;;;18.90;99.90;;;;;;5019053;28;20030;-67
2023/08/14 00:46:31;;;;;;;3.58;2.10;;;18.90;99.90;;;;;;5019076;28;20022;-67
2023/08/14 00:48:58;;;;;;;7.70;2.15;;;18.80;99.90;;;;;;5018696;28;20022;-67
2023/08/14 00:51:24;;;;;;;8.50;2.40;;;18.70;99.90;;;;;;5018828;28;20026;-67
2023/08/14 00:53:51;;;;;;;4.03;1.92;;;18.70;99.90;;;;;;5018579;28;20105;-67
2023/08/14 00:56:19;;;;;;;4.88;2.30;;;18.70;99.90;;;;;;5018616;28;20060;-67
2023/08/14 00:58:44;;;;;;;4.22;2.08;;;18.70;99.90;;;;;;5018300;28;20022;-67
2023/08/14 01:01:10;;;;;;;4.20;2.53;;;18.70;99.90;;;;;;5018758;28;20029;-67
2023/08/14 01:03:36;;;;;;;7.43;2.25;;;18.70;99.90;;;;;;5018660;28;20025;-67
2023/08/14 01:06:02;;;;;;;9.13;2.08;;;18.70;99.90;;;;;;5018445;28;20022;-67
2023/08/14 01:08:28;;;;;;;5.15;2.25;;;18.70;99.90;;;;;;5018435;28;20030;-67
2023/08/14 01:11:01;;;;;;;6.10;1.98;;;18.60;99.90;;;;;;5018561;28;20030;-67
2023/08/14 01:13:46;;;;;;;4.03;1.98;;;18.60;99.90;;;;;;5018138;28;20030;-67
2023/08/14 01:16:17;;;;;;;4.90;2.47;;;18.50;99.90;;;;;;5019013;28;20033;-67
2023/08/14 01:18:46;;;;;;;3.28;2.00;;;18.50;99.90;;;;;;5018637;28;20026;-67
2023/08/14 01:21:29;;;;;;;3.45;2.00;;;18.50;99.90;;;;;;5018270;28;20021;-67
2023/08/14 01:24:31;;;;;;;3.80;2.08;;;18.60;99.90;;;;;;5018835;28;20204;-67
2023/08/14 01:26:57;;;;;;;4.63;2.50;;;18.60;99.90;;;;;;5018102;28;20060;-67
2023/08/14 01:29:23;;;;;;;5.65;2.50;;;18.60;99.90;;;;;;5018374;28;20084;-67
2023/08/14 01:31:48;;;;;;;7.80;2.22;;;18.60;99.90;;;;;;5018575;28;20050;-67
2023/08/14 01:34:14;;;;;;;4.57;2.10;;;18.60;99.90;;;;;;5018474;28;20112;-67
2023/08/14 01:36:59;;;;;;;4.10;2.03;;;18.60;99.90;;;;;;5017940;28;20030;-67
2023/08/14 01:39:31;;;;;;;8.77;2.55;;;18.60;99.90;;;;;;5017466;28;20026;-67
2023/08/14 01:42:00;;;;;;;4.95;2.10;;;18.50;99.90;;;;;;5018437;28;20038;-67
2023/08/14 01:44:27;;;;;;;9.35;2.00;;;18.50;99.90;;;;;;5018357;28;20025;-67
2023/08/14 01:46:55;;;;;;;7.03;2.50;;;18.60;99.90;;;;;;5018603;28;20026;-67
2023/08/14 01:49:22;;;;;;;3.63;2.10;;;18.60;99.90;;;;;;5017397;28;20022;-67
2023/08/14 01:51:52;;;;;;;4.53;2.38;;;18.60;99.90;;;;;;5017463;28;20118;-67
2023/08/14 01:54:18;;;;;;;9.82;2.25;;;18.60;99.90;;;;;;5017324;28;20029;-67
2023/08/14 01:56:43;;;;;;;4.20;2.10;;;18.60;99.90;;;;;;5017328;28;20025;-67
2023/08/14 01:59:09;;;;;;;5.18;1.80;;;18.60;99.90;;;;;;5018062;28;20038;-67
2023/08/14 02:01:34;;;;;;;5.32;2.38;;;18.50;99.90;;;;;;5017275;28;20168;-67
2023/08/14 02:04:00;;;;;;;8.18;2.00;;;18.40;99.90;;;;;;5017236;28;20052;-67
2023/08/14 02:06:26;;;;;;;12.32;2.20;;;18.30;99.90;;;;;;5017230;28;20053;-67
2023/08/14 02:08:51;;;;;;;9.30;2.10;;;18.20;99.90;;;;;;5017099;28;20029;-67
2023/08/14 02:11:17;;;;;;;6.43;2.30;;;18.20;99.90;;;;;;5016873;28;20026;-67
2023/08/14 02:13:42;;;;;;;4.32;1.92;;;18.20;99.90;;;;;;5017335;28;20021;-67
2023/08/14 02:16:08;;;;;;;8.70;2.55;;;18.20;99.90;;;;;;5016859;28;20025;-67
2023/08/14 02:18:33;;;;;;;2.38;1.83;;;18.30;99.90;;;;;;5016806;28;20058;-67
2023/08/14 02:20:59;;;;;;;6.07;2.45;;;18.30;99.90;;;;;;5017189;28;20144;-67
2023/08/14 02:23:24;;;;;;;5.63;2.00;;;18.30;99.90;;;;;;5017097;28;20026;-67
2023/08/14 02:25:53;;;;;;;13.00;2.95;;;18.30;99.90;;;;;;5016780;28;20056;-67
2023/08/14 02:28:19;;;;;;;10.02;2.53;;;18.20;99.90;;;;;;5016917;28;20092;-68
2023/08/14 02:30:44;;;;;;;6.78;2.55;;;18.20;99.90;;;;;;5017379;28;20025;-68
2023/08/14 02:33:10;;;;;;;6.10;2.97;;;18.20;99.90;;;;;;5017043;28;20076;-68
2023/08/14 02:35:36;;;;;;;3.35;1.75;;;18.20;99.90;;;;;;5016706;28;20038;-68
2023/08/14 02:38:06;;;;;;;4.13;1.70;;;17.90;99.90;;;;;;5041012;22;20038;-70
2023/08/14 02:40:32;;;;;;;2.85;1.90;;;17.70;99.90;;;;;;5016643;28;20049;-70
2023/08/14 02:43:00;;;;;;;8.98;2.15;;;17.70;99.90;;;;;;5016925;28;20022;-71
2023/08/14 02:45:25;;;;;;;5.25;2.25;;;17.80;99.90;;;;;;5016464;28;20022;-70
2023/08/14 02:47:51;;;;;;;12.10;2.22;;;17.80;99.90;;;;;;5016468;28;20026;-70
2023/08/14 02:50:16;;;;;;;6.63;2.08;;;17.90;99.90;;;;;;5016403;28;20022;-70
2023/08/14 02:52:42;;;;;;;5.65;2.08;;;18.00;99.90;;;;;;5016714;28;20022;-70
2023/08/14 02:55:08;;;;;;;6.63;1.65;;;18.00;99.90;;;;;;5016355;28;20034;-70
2023/08/14 02:57:33;;;;;;;4.10;2.42;;;18.00;99.90;;;;;;5017391;28;20029;-70
2023/08/14 02:59:59;;;;;;;5.63;2.30;;;18.10;99.90;;;;;;5016536;28;20041;-70
2023/08/14 03:02:24;;;;;;;10.77;2.40;;;18.20;99.90;;;;;;5017136;28;20057;-70
2023/08/14 03:04:50;;;;;;;4.10;1.95;;;18.20;99.90;;;;;;5016393;28;20037;-70
2023/08/14 03:07:16;;;;;;;3.83;2.00;;;18.20;99.90;;;;;;5016142;28;20025;-70
2023/08/14 03:09:41;;;;;;;7.50;2.03;;;18.10;99.90;;;;;;5016481;28;20053;-70
2023/08/14 03:12:07;;;;;;;15.45;2.60;;;18.10;99.90;;;;;;5016220;28;20029;-70
2023/08/14 03:14:33;;;;;;;5.38;2.25;;;18.00;99.90;;;;;;5016353;28;20034;-70
2023/08/14 03:16:58;;;;;;;13.05;2.10;;;17.90;99.90;;;;;;5017026;28;20041;-70
2023/08/14 03:19:24;;;;;;;7.03;2.20;;;17.90;99.90;;;;;;5016480;28;20026;-70
2023/08/14 03:21:51;;;;;;;9.95;2.35;;;17.90;99.90;;;;;;5017884;28;20022;-70
2023/08/14 03:24:17;;;;;;;7.90;2.35;;;17.90;99.90;;;;;;5020524;28;20049;-70
2023/08/14 03:26:42;;;;;;;5.40;2.20;;;17.90;99.90;;;;;;5020569;28;20033;-70
2023/08/14 03:29:08;;;;;;;6.85;2.20;;;17.90;99.90;;;;;;5021071;28;20030;-70
2023/08/14 03:31:34;;;;;;;6.93;2.13;;;17.90;99.90;;;;;;5021156;28;20089;-70
2023/08/14 03:34:00;;;;;;;4.93;2.67;;;17.90;99.90;;;;;;5021186;28;20026;-70
2023/08/14 03:36:25;;;;;;;3.60;2.78;;;18.00;99.90;;;;;;5019653;28;20064;-70
2023/08/14 03:38:51;;;;;;;6.45;3.00;;;17.90;99.90;;;;;;5019916;28;20149;-70
2023/08/14 03:41:18;;;;;;;5.05;2.45;;;18.00;99.90;;;;;;5019879;28;20048;-70
2023/08/14 03:43:43;;;;;;;5.72;3.13;;;17.90;99.90;;;;;;5019725;28;20100;-70
2023/08/14 03:46:09;;;;;;;4.05;2.25;;;17.90;99.90;;;;;;5019896;28;20046;-70
2023/08/14 03:48:34;;;;;;;6.65;2.38;;;17.90;99.90;;;;;;5020485;28;20049;-70
2023/08/14 03:51:00;;;;;;;7.35;3.17;;;17.90;99.90;;;;;;5020551;28;20030;-70
2023/08/14 03:53:25;;;;;;;4.63;2.17;;;17.60;99.90;;;;;;5019646;28;20113;-70
2023/08/14 03:55:51;;;;;;;5.75;2.08;;;17.50;99.90;;;;;;5020389;28;20026;-71
2023/08/14 03:58:17;;;;;;;7.00;3.28;;;17.50;99.90;;;;;;5019654;28;20030;-67
2023/08/14 04:00:43;;;;;;;2.83;2.20;;;17.60;99.90;;;;;;5020569;28;20018;-67
2023/08/14 04:03:08;;;;;;;7.20;2.50;;;17.60;99.90;;;;;;5019720;28;20033;-67
2023/08/14 04:05:41;;;;;;;4.40;2.40;;;17.70;99.90;;;;;;5019685;28;20018;-67
2023/08/14 04:08:07;;;;;;;4.45;2.35;;;17.80;99.90;;;;;;5019527;28;20048;-67
2023/08/14 04:10:33;;;;;;;7.15;2.58;;;17.90;99.90;;;;;;5019576;28;20064;-67
2023/08/14 04:12:59;;;;;;;7.95;2.50;;;17.90;99.90;;;;;;5019259;28;20116;-67
2023/08/14 04:15:25;;;;;;;9.13;2.88;;;18.00;99.90;;;;;;5019523;28;20026;-67
2023/08/14 04:17:50;;;;;;;12.25;2.50;;;18.00;99.90;;;;;;5019064;28;20025;-67
2023/08/14 04:20:16;;;;;;;11.70;2.67;;;18.00;99.90;;;;;;5019348;28;20022;-67
2023/08/14 04:22:41;;;;;;;4.85;2.30;;;18.00;99.90;;;;;;5019100;28;20121;-67
2023/08/14 04:25:07;;;;;;;7.90;2.55;;;18.00;99.90;;;;;;5019941;28;20026;-67
2023/08/14 04:27:38;;;;;;;12.13;2.90;;;18.00;99.90;;;;;;5019808;28;20057;-67
2023/08/14 04:30:05;;;;;;;6.20;2.60;;;18.00;99.90;;;;;;5019018;28;20033;-67
2023/08/14 04:32:31;;;;;;;5.80;2.33;;;18.00;99.90;;;;;;5018758;28;20060;-67
2023/08/14 04:34:57;;;;;;;7.00;2.58;;;18.00;99.90;;;;;;5018536;28;20025;-67
2023/08/14 04:37:22;;;;;;;6.28;3.38;;;18.10;99.90;;;;;;5019580;28;20044;-67
2023/08/14 04:39:48;;;;;;;2.60;2.15;;;18.10;99.90;;;;;;5018972;28;20036;-67
2023/08/14 04:42:13;;;;;;;6.13;2.55;;;18.10;99.90;;;;;;5020155;28;20029;-67
2023/08/14 04:44:39;;;;;;;13.75;2.72;;;18.10;99.90;;;;;;5019865;28;20018;-67
2023/08/14 04:47:05;;;;;;;4.78;2.05;;;18.10;99.90;;;;;;5019388;28;20044;-67
2023/08/14 04:49:30;;;;;;;7.07;2.28;;;18.10;99.90;;;;;;5018877;28;20030;-67
2023/08/14 04:51:56;;;;;;;5.47;2.20;;;18.10;99.90;;;;;;5018581;28;20080;-67
2023/08/14 04:54:21;;;;;;;6.82;2.13;;;18.10;99.90;;;;;;5018772;28;20033;-67
2023/08/14 04:56:47;;;;;;;4.63;2.63;;;18.10;99.90;;;;;;5018337;28;20060;-66
2023/08/14 04:59:12;;;;;;;9.38;3.08;;;18.10;99.90;;;;;;5018403;28;20056;-67
2023/08/14 05:01:38;;;;;;;8.35;2.83;;;18.00;99.90;;;;;;5018408;28;20044;-67
2023/08/14 05:04:04;;;;;;;8.35;2.65;;;18.00;99.90;;;;;;5018462;28;20030;-67
2023/08/14 05:06:29;;;;;;;5.63;2.20;;;18.00;99.90;;;;;;5018232;28;20068;-67
2023/08/14 05:08:55;;;;;;;4.53;2.63;;;18.10;99.90;;;;;;5019305;28;20033;-67
2023/08/14 05:11:20;;;;;;;7.65;2.28;;;18.10;99.90;;;;;;5018367;28;20034;-67
2023/08/14 05:13:46;;;;;;;8.98;3.08;;;18.20;99.90;;;;;;5018074;28;20018;-67
2023/08/14 05:16:11;;;;;;;6.93;2.55;;;18.10;99.90;;;;;;5018257;28;20025;-67
2023/08/14 05:18:37;;;;;;;10.32;3.03;;;18.20;99.90;;;;;;5018837;28;20030;-67
2023/08/14 05:21:03;;;;;;;6.60;3.00;;;18.20;99.90;;;;;;5018079;28;20092;-67
2023/08/14 05:23:28;;;;;;;7.03;3.15;;;18.30;99.90;;;;;;5017898;28;20120;-67
2023/08/14 05:25:54;;;;;;;9.13;3.00;;;18.40;99.90;;;;;;5018007;28;20064;-67
2023/08/14 05:28:19;;;;;;;7.82;2.65;;;18.40;99.90;;;;;;5018249;28;20030;-67
2023/08/14 05:30:45;;;;;;;12.02;3.38;;;18.40;99.90;;;;;;5018809;28;20025;-67
2023/08/14 05:33:12;;;;;;;6.90;2.85;;;18.60;99.90;;;;;;5018721;28;20018;-67
2023/08/14 05:35:37;;;;;;;10.20;3.72;;;18.60;99.90;;;;;;5018895;28;20041;-67
2023/08/14 05:38:03;;;;;;;7.38;2.90;;;18.60;99.90;;;;;;5017342;28;20049;-67
2023/08/14 05:40:29;;;;;;;5.90;2.75;;;18.60;99.90;;;;;;5018039;28;20120;-67
2023/08/14 05:43:03;;;;;;;6.63;2.72;;;18.60;99.90;;;;;;5018065;28;20017;-67
2023/08/14 05:45:30;;;;;;;6.13;2.70;;;18.70;99.90;;;;;;5016425;28;20026;-67
2023/08/14 05:47:55;;;;;;;12.32;3.78;;;18.60;99.90;;;;;;5018505;28;20033;-67
2023/08/14 05:50:21;;;;;;;8.70;2.78;;;18.40;99.90;;;;;;5017588;28;20034;-67
2023/08/14 05:52:47;;;;;;;8.73;2.30;;;18.50;99.90;;;;;;5017465;28;20022;-67
2023/08/14 05:55:13;;;;;;;7.13;2.63;;;18.40;99.90;;;;;;5018242;28;20034;-67
2023/08/14 05:57:39;;;;;;;5.38;2.50;;;18.60;99.90;;;;;;5017909;28;20116;-67
2023/08/14 06:00:05;;;;;;;3.95;2.28;;;18.70;99.90;;;;;;5018426;28;20109;-67
2023/08/14 06:02:31;;;;;;;4.38;2.42;;;18.80;99.90;;;;;;5017103;28;20022;-67
2023/08/14 06:04:56;;;;;;;5.43;2.28;;;18.90;99.90;;;;;;5017411;28;20101;-67
2023/08/14 06:07:22;;;;;;;6.70;2.80;;;19.00;99.90;;;;;;5018073;28;20046;-67
2023/08/14 06:09:47;;;;;;;7.78;2.40;;;19.00;99.90;;;;;;5017041;28;20029;-67
2023/08/14 06:12:13;;;;;;;4.60;2.80;;;19.10;99.90;;;;;;5017324;28;20030;-67
2023/08/14 06:14:38;;;;;;;6.80;2.45;;;19.20;99.90;;;;;;5017845;28;20033;-67
2023/08/14 06:17:04;;;;;;;9.73;3.40;;;19.20;99.90;;;;;;5016880;28;20022;-67
2023/08/14 06:19:29;;;;;;;6.30;2.50;;;19.20;99.90;;;;;;5016910;28;20025;-67
2023/08/14 06:21:55;;;;;;;10.40;3.47;;;19.20;99.90;;;;;;5017211;28;20022;-67
2023/08/14 06:24:22;;;;;;;14.35;3.10;;;19.20;99.90;;;;;;5018033;28;20041;-67
2023/08/14 06:26:47;;;;;;;8.73;2.63;;;19.20;99.90;;;;;;5017677;28;20026;-67
2023/08/14 06:29:13;;;;;;;6.32;2.97;;;19.30;99.90;;;;;;5017637;28;20114;-67
2023/08/14 06:31:38;;;;;;;6.93;2.63;;;19.30;99.90;;;;;;5017993;28;20034;-67
2023/08/14 06:34:05;;;;;;;9.13;2.90;;;19.30;99.90;;;;;;5017570;28;20073;-67
2023/08/14 06:36:30;;;;;;;5.40;3.10;;;19.50;99.90;;;;;;5017655;28;20038;-67
2023/08/14 06:38:56;;;;;;;4.82;2.67;;;19.50;99.90;;;;;;5016607;28;20032;-67
2023/08/14 06:41:21;;;;;;;4.55;3.00;;;19.60;99.90;;;;;;5016534;28;20018;-67
2023/08/14 06:43:47;;;;;;;10.05;3.13;;;19.70;99.90;;;;;;5016897;28;20029;-67
2023/08/14 06:46:12;;;;;;;6.00;2.88;;;19.70;99.90;;;;;;5016411;28;20030;-67
2023/08/14 06:48:38;;;;;;;8.05;2.60;;;19.80;99.90;;;;;;5017136;28;20026;-67
2023/08/14 06:51:03;;;;;;;4.07;2.65;;;19.80;99.90;;;;;;5016888;28;20026;-67
2023/08/14 06:53:29;;;;;;;7.00;3.33;;;19.90;99.90;;;;;;5016530;28;20029;-67
2023/08/14 06:55:55;;;;;;;8.52;2.72;;;19.80;99.90;;;;;;5017061;28;20033;-67
2023/08/14 06:58:21;;;;;;;8.18;2.78;;;19.90;99.90;;;;;;5016197;28;20079;-67
2023/08/14 07:00:47;;;;;;;9.75;2.92;;;19.90;99.90;;;;;;5016535;28;20026;-67
2023/08/14 07:03:12;;;;;;;6.10;2.63;;;20.00;99.90;;;;;;5016281;28;20080;-67
2023/08/14 07:05:38;;;;;;;7.75;3.13;;;20.10;99.90;;;;;;5016425;28;20018;-68
2023/08/14 07:08:04;;;;;;;5.47;2.45;;;20.20;99.90;;;;;;5016434;28;20026;-67
2023/08/14 07:10:29;;;;;;;11.98;3.35;;;20.20;99.90;;;;;;5016200;28;20041;-68
2023/08/14 07:12:55;;;;;;;5.95;2.40;;;20.30;99.90;;;;;;5016406;28;20034;-68
2023/08/14 07:15:20;;;;;;;10.35;2.65;;;20.30;99.90;;;;;;5016506;28;20030;-67
2023/08/14 07:17:46;;;;;;;7.10;2.58;;;20.30;99.90;;;;;;5016476;28;20030;-67
2023/08/14 07:20:12;;;;;;;7.30;2.80;;;20.40;99.90;;;;;;5016181;28;20025;-67
2023/08/14 07:22:38;;;;;;;6.53;3.10;;;20.40;99.90;;;;;;5016531;28;20030;-68
2023/08/14 07:25:05;;;;;;;6.20;2.53;;;20.50;99.90;;;;;;5016996;28;20022;-68
2023/08/14 07:27:30;;;;;;;4.65;2.60;;;20.50;99.90;;;;;;5016482;28;20026;-67
2023/08/14 07:29:56;;;;;;;10.25;2.10;;;20.50;99.90;;;;;;5016475;28;20053;-67
2023/08/14 07:32:21;;;;;;;6.63;2.65;;;20.50;99.90;;;;;;5016598;28;20026;-68
2023/08/14 07:34:48;;;;;;;5.32;2.55;;;20.60;99.90;;;;;;5016056;28;20045;-68
2023/08/14 07:37:14;;;;;;;8.65;2.42;;;20.60;99.90;;;;;;5016009;28;20041;-68
2023/08/14 07:39:39;;;;;;;8.00;2.85;;;20.70;99.90;;;;;;5015962;28;20033;-68
2023/08/14 07:42:05;;;;;;;10.48;3.15;;;20.80;99.90;;;;;;5016481;28;20057;-68
2023/08/14 07:44:30;;;;;;;7.32;2.47;;;20.80;99.90;;;;;;5015937;28;20121;-68
2023/08/14 07:46:56;;;;;;;2.90;2.13;;;20.90;99.90;;;;;;5016586;28;20018;-67
2023/08/14 07:49:22;;;;;;;5.85;2.45;;;21.00;99.90;;;;;;5017408;28;20026;-67
2023/08/14 07:51:47;;;;;;;4.78;2.65;;;21.10;99.90;;;;;;5016901;28;20025;-67
2023/08/14 07:54:13;;;;;;;6.13;2.40;;;21.20;99.90;;;;;;5015967;28;20030;-67
2023/08/14 07:56:38;;;;;;;4.95;2.20;;;21.20;99.90;;;;;;5015808;28;20076;-68
2023/08/14 07:59:05;;;;;;;6.32;3.00;;;21.30;99.90;;;;;;5015732;28;20059;-68
2023/08/14 08:01:31;;;;;;;5.55;1.92;;;21.40;99.90;;;;;;5015699;28;20024;-68
2023/08/14 08:03:57;;;;;;;3.92;2.78;;;21.50;99.90;;;;;;5016100;28;20022;-68
2023/08/14 08:06:23;;;;;;;7.78;1.92;;;21.70;99.90;;;;;;5015655;28;20092;-68
2023/08/14 08:08:48;;;;;;;11.25;3.38;;;21.90;99.90;;;;;;5018117;28;20026;-68
2023/08/14 08:11:14;;;;;;;7.15;2.33;;;22.00;99.90;;;;;;5019495;28;20026;-68
2023/08/14 08:13:39;;;;;;;7.93;2.85;;;22.10;99.90;;;;;;5020057;28;20030;-68
2023/08/14 08:16:05;;;;;;;8.35;1.95;;;22.10;99.90;;;;;;5019560;28;20030;-68
2023/08/14 08:18:30;;;;;;;3.92;2.05;;;22.10;99.90;;;;;;5019996;28;20030;-72
2023/08/14 08:20:56;;;;;;;9.77;2.30;;;22.40;99.90;;;;;;5019519;28;20105;-72
2023/08/14 08:23:21;;;;;;;10.20;2.42;;;22.50;99.90;;;;;;5019059;28;20026;-72
2023/08/14 08:25:47;;;;;;;2.60;2.00;;;22.50;99.90;;;;;;5019824;28;20022;-72
2023/08/14 08:28:12;;;;;;;8.85;2.30;;;22.40;99.90;;;;;;5019374;28;20026;-73
2023/08/14 08:30:38;;;;;;;5.43;2.50;;;22.40;99.90;;;;;;5018975;28;20018;-73
2023/08/14 08:33:04;;;;;;;9.77;2.30;;;22.40;99.90;;;;;;5018939;28;20028;-73
2023/08/14 08:35:29;;;;;;;6.00;2.25;;;22.40;99.90;;;;;;5018891;28;20053;-73
2023/08/14 08:37:55;;;;;;;4.32;2.30;;;22.40;99.90;;;;;;5029150;22;20042;-68
2023/08/14 08:40:21;;;;;;;3.92;2.08;;;22.60;99.90;;;;;;4999168;28;20030;-70
2023/08/14 08:42:48;;;;;;;5.38;1.90;;;22.70;99.90;;;;;;5015529;28;20121;-70
2023/08/14 08:45:16;;;;;;;6.78;2.10;;;22.70;99.90;;;;;;5015478;28;20065;-70
2023/08/14 08:47:46;;;;;;;2.08;1.85;;;22.90;99.90;;;;;;4999025;28;20121;-70
2023/08/14 08:50:11;;;;;;;7.70;2.05;;;23.40;99.90;;;;;;4999942;28;20026;-70
2023/08/14 08:52:38;;;;;;;5.22;1.85;;;23.40;99.90;;;;;;4999873;28;20157;-70
2023/08/14 08:55:05;;;;;;;6.20;2.17;;;23.40;99.90;;;;;;4999273;28;20092;-69
2023/08/14 08:57:31;;;;;;;7.25;2.03;;;23.30;99.90;;;;;;5000158;28;20022;-69
2023/08/14 08:59:58;;;;;;;4.72;2.42;;;23.30;99.90;;;;;;4998943;28;20081;-70
2023/08/14 09:02:24;;;;;;;6.88;2.20;;;23.50;99.90;;;;;;4999295;28;20061;-70
2023/08/14 09:04:50;;;;;;;5.40;2.08;;;23.60;99.90;;;;;;4999335;28;20058;-70
2023/08/14 09:07:16;;;;;;;4.90;2.10;;;23.80;99.90;;;;;;4999006;28;20117;-70
2023/08/14 09:09:42;;;;;;;4.10;1.77;;;23.90;99.90;;;;;;4999746;28;20035;-70
2023/08/14 09:12:08;;;;;;;6.05;1.73;;;24.00;99.90;;;;;;4998629;28;20030;-70
2023/08/14 09:14:33;;;;;;;3.80;1.95;;;24.00;99.90;;;;;;4999476;28;20031;-69
2023/08/14 09:17:00;;;;;;;4.18;2.00;;;24.10;99.90;;;;;;4998399;28;20036;-70
2023/08/14 09:19:27;;;;;;;7.53;2.15;;;24.30;99.90;;;;;;4998478;28;20030;-70
2023/08/14 09:21:53;;;;;;;6.40;2.20;;;24.40;99.90;;;;;;4998719;28;20022;-71
2023/08/14 09:24:19;;;;;;;11.32;2.70;;;24.80;99.90;;;;;;4998396;28;20049;-71
2023/08/14 09:26:46;;;;;;;4.38;1.90;;;24.80;99.90;;;;;;4998569;28;20026;-70
2023/08/14 09:29:13;;;;;;;3.20;1.88;;;24.90;99.90;;;;;;4998243;28;20041;-70
2023/08/14 09:31:44;;;;;;;8.05;2.15;;;24.70;99.90;;;;;;4999164;28;20027;-69
2023/08/14 09:34:16;;;;;;;3.03;1.70;;;24.60;99.90;;;;;;4998374;28;20037;-70
2023/08/14 09:36:42;;;;;;;7.60;2.33;;;24.60;99.90;;;;;;4998979;28;20034;-71
2023/08/14 09:39:09;;;;;;;9.55;2.53;;;24.50;99.90;;;;;;4998091;28;20077;-70
2023/08/14 09:41:35;;;;;;;6.55;2.08;;;24.50;99.90;;;;;;4998771;28;20113;-71
2023/08/14 09:44:01;;;;;;;2.88;1.90;;;24.40;99.90;;;;;;4998152;28;20022;-70
2023/08/14 09:46:28;;;;;;;6.30;1.63;;;24.50;99.90;;;;;;4998700;28;20081;-70
2023/08/14 09:48:53;;;;;;;4.38;2.25;;;24.50;99.90;;;;;;4998684;28;20030;-71
2023/08/14 09:51:19;;;;;;;4.50;2.08;;;24.60;99.90;;;;;;4998160;28;20030;-70
2023/08/14 09:53:50;;;;;;;3.75;1.92;;;24.60;99.90;;;;;;4998283;28;20023;-70
2023/08/14 09:56:17;;;;;;;6.57;2.15;;;24.60;99.90;;;;;;4998018;28;20061;-70
2023/08/14 09:58:44;;;;;;;5.13;2.00;;;24.60;99.90;;;;;;4997658;28;20061;-70
2023/08/14 10:01:12;;;;;;;7.20;2.25;;;24.70;99.90;;;;;;4997732;28;20026;-70
2023/08/14 10:03:40;;;;;;;4.13;2.17;;;24.90;99.90;;;;;;4997868;28;20030;-70
2023/08/14 10:06:09;;;;;;;5.45;2.10;;;25.10;99.90;;;;;;4997584;28;20026;-70
2023/08/14 10:08:36;;;;;;;8.80;2.10;;;25.10;99.90;;;;;;4997510;28;20026;-70
2023/08/14 10:11:03;;;;;;;13.50;2.45;;;25.10;99.90;;;;;;4997715;28;20026;-70
2023/08/14 10:13:29;;;;;;;4.35;2.08;;;24.90;99.90;;;;;;4997466;28;20038;-70
2023/08/14 10:15:58;;;;;;;4.50;2.22;;;24.80;99.90;;;;;;4998180;28;20113;-70
2023/08/14 10:18:28;;;;;;;4.90;1.67;;;24.80;99.90;;;;;;4997151;28;20057;-70
2023/08/14 10:20:56;;;;;;;6.45;2.05;;;24.70;99.90;;;;;;4997673;28;20033;-70
2023/08/14 10:23:22;;;;;;;6.20;2.28;;;24.70;99.90;;;;;;4997668;28;20084;-70
2023/08/14 10:25:50;;;;;;;5.43;2.47;;;24.60;99.90;;;;;;4998197;28;20027;-70
2023/08/14 10:28:18;;;;;;;4.80;2.35;;;24.70;99.90;;;;;;4997195;28;20030;-70
2023/08/14 10:30:45;;;;;;;7.20;2.25;;;24.70;99.90;;;;;;4996826;28;20029;-70
2023/08/14 10:33:12;;;;;;;6.28;2.15;;;24.70;99.90;;;;;;4997931;28;20122;-70
2023/08/14 10:35:48;;;;;;;6.95;2.47;;;24.60;99.90;;;;;;4997227;28;20022;-70
2023/08/14 10:38:15;;;;;;;5.68;1.70;;;24.60;99.90;;;;;;4998785;28;20060;-70
2023/08/14 10:40:54;;;;;;;3.78;2.13;;;24.70;99.90;;;;;;4997840;28;20101;-70
2023/08/14 10:43:28;;;;;;;3.92;2.00;;;24.70;99.90;;;;;;4997905;28;20021;-70
2023/08/14 10:45:53;;;;;;;4.13;2.20;;;24.60;99.90;;;;;;4997120;28;20065;-70
2023/08/14 10:48:20;;;;;;;2.92;1.88;;;24.70;99.90;;;;;;4997695;28;20027;-70
2023/08/14 10:50:48;;;;;;;5.60;2.20;;;24.80;99.90;;;;;;4996872;28;20023;-70
2023/08/14 10:53:15;;;;;;;4.55;2.13;;;24.90;99.90;;;;;;4997803;28;20020;-70
2023/08/14 10:55:46;;;;;;;2.60;2.13;;;25.00;99.90;;;;;;4996872;28;20030;-70
2023/08/14 10:58:35;;;;;;;2.70;1.88;;;25.10;99.90;;;;;;4996955;28;20089;-70
2023/08/14 11:01:06;;;;;;;4.47;2.42;;;25.10;99.90;;;;;;4998110;28;20026;-70
2023/08/14 11:03:58;;;;;;;6.78;2.25;;;25.10;99.90;;;;;;4996856;28;20069;-70
2023/08/14 11:06:28;;;;;;;4.75;1.92;;;25.20;99.90;;;;;;4991287;28;20031;-70
2023/08/14 11:09:07;;;;;;;3.92;2.10;;;25.30;99.90;;;;;;4997710;28;20033;-70
2023/08/14 11:11:35;;;;;;;6.68;2.33;;;25.40;99.90;;;;;;4997710;28;20026;-71
2023/08/14 11:14:01;;;;;;;2.83;2.10;;;25.30;99.90;;;;;;4996740;28;20073;-70
2023/08/14 11:16:27;;;;;;;8.07;3.20;;;25.30;99.90;;;;;;4996720;28;20053;-70
2023/08/14 11:18:53;;;;;;;4.82;2.08;;;25.40;99.90;;;;;;4997682;28;20105;-70
2023/08/14 11:21:19;;;;;;;2.53;2.00;;;25.40;99.90;;;;;;4997858;28;20026;-70
2023/08/14 11:23:45;;;;;;;3.30;2.05;;;25.50;99.90;;;;;;4996564;28;20081;-70
2023/08/14 11:26:10;;;;;;;3.75;2.40;;;25.60;99.90;;;;;;4996644;28;20027;-70
2023/08/14 11:28:35;;;;;;;10.40;2.30;;;26.00;99.90;;;;;;4997527;28;20038;-70
2023/08/14 11:31:01;;;;;;;4.57;2.40;;;26.90;99.90;;;;;;4996770;28;20077;-70
2023/08/14 11:33:27;;;;;;;5.65;2.10;;;27.10;99.90;;;;;;4996565;28;20027;-70
2023/08/14 11:35:55;;;;;;;3.35;2.15;;;26.80;99.90;;;;;;4996360;28;20061;-70
2023/08/14 11:38:22;;;;;;;6.45;2.28;;;27.20;99.90;;;;;;4996714;28;20069;-68
2023/08/14 11:40:47;;;;;;;4.57;2.40;;;27.40;99.90;;;;;;4996396;28;20026;-68
2023/08/14 11:43:13;;;;;;;6.82;2.60;;;28.50;99.90;;;;;;4998510;28;20040;-68
2023/08/14 11:45:39;;;;;;;6.10;2.40;;;28.60;99.90;;;;;;5001329;28;20045;-68
2023/08/14 11:48:06;;;;;;;8.27;2.17;;;28.20;99.90;;;;;;5001056;28;20042;-68
2023/08/14 11:50:32;;;;;;;4.47;2.28;;;28.00;99.90;;;;;;5001003;28;20026;-68
2023/08/14 11:52:58;;;;;;;4.75;2.15;;;28.30;99.90;;;;;;4999998;28;20030;-68
2023/08/14 11:55:24;;;;;;;5.15;2.65;;;28.40;99.90;;;;;;5000534;28;20037;-68
2023/08/14 11:57:51;;;;;;;5.45;2.28;;;29.00;99.90;;;;;;5000799;28;20077;-68
2023/08/14 12:00:16;;;;;;;7.05;2.45;;;29.90;99.90;;;;;;4999926;28;20033;-68
2023/08/14 12:02:42;;;;;;;9.18;2.75;;;29.70;99.90;;;;;;5000176;28;20019;-68
2023/08/14 12:05:08;;;;;;;4.80;2.60;;;29.30;99.90;;;;;;5000209;28;20045;-68
2023/08/14 12:07:34;;;;;;;5.70;2.20;;;29.20;99.90;;;;;;4999959;28;20033;-68
2023/08/14 12:10:05;;;;;;;6.65;2.50;;;28.90;99.90;;;;;;4999856;28;20030;-68
2023/08/14 12:12:31;;;;;;;4.25;2.40;;;29.60;99.90;;;;;;4999714;28;20065;-68
2023/08/14 12:14:56;;;;;;;5.82;2.33;;;29.90;99.90;;;;;;4999645;28;20030;-68
2023/08/14 12:17:22;;;;;;;9.00;2.92;;;30.00;99.90;;;;;;4999576;28;20030;-68
2023/08/14 12:19:49;;;;;;;11.82;2.55;;;30.20;99.90;;;;;;4999651;28;20022;-68
2023/08/14 12:22:15;;;;;;;8.50;2.58;;;29.60;99.90;;;;;;4999600;28;20069;-67
2023/08/14 12:24:43;;;;;;;4.97;2.40;;;28.80;99.90;;;;;;4999693;28;20058;-68
2023/08/14 12:27:19;;;;;;;4.70;2.15;;;28.50;99.90;;;;;;4999487;28;20029;-68
2023/08/14 12:29:46;;;;;;;4.82;2.25;;;28.50;99.90;;;;;;4999409;28;20026;-68
2023/08/14 12:32:12;;;;;;;4.07;2.40;;;28.50;99.90;;;;;;4999670;28;20081;-68
2023/08/14 12:34:37;;;;;;;7.45;2.58;;;28.40;99.90;;;;;;4999391;28;20030;-68
2023/08/14 12:37:07;;;;;;;6.97;2.58;;;28.50;99.90;;;;;;5000204;28;20070;-67
2023/08/14 12:39:33;;;;;;;5.70;2.58;;;29.10;99.90;;;;;;4999115;28;20053;-68
2023/08/14 12:42:02;;;;;;;4.25;2.30;;;29.80;99.90;;;;;;5000168;28;20018;-67